createdAt,value
2023-05-22T05:43:28.726Z,58.45
2023-05-22T05:46:14.361Z,58.45
2023-05-22T05:48:59.732Z,58.32
2023-05-22T05:51:45.484Z,58.97
2023-05-22T05:54:31.193Z,58.67
2023-05-22T05:57:16.678Z,58.24
2023-05-22T06:00:02.533Z,58.43
2023-05-22T06:02:50.655Z,58.51
2023-05-22T06:05:36.280Z,58.36
2023-05-22T06:08:21.961Z,57.17
2023-05-22T06:11:07.053Z,57.43
2023-05-22T06:13:52.427Z,56.85
2023-05-22T06:16:37.882Z,57.01
2023-05-22T06:19:23.138Z,56.92
2023-05-22T06:22:09.003Z,55.99
2023-05-22T06:24:54.592Z,57.08
2023-05-22T06:27:40.115Z,56.99
2023-05-22T06:30:43.372Z,55.96
2023-05-22T06:33:29.016Z,55.86
2023-05-22T06:36:14.681Z,55.68
2023-05-22T06:39:00.217Z,55.81
2023-05-22T06:41:45.535Z,55.81
2023-05-22T06:44:30.987Z,55.49
2023-05-22T06:47:16.205Z,53.96
2023-05-22T06:50:01.584Z,54.25
2023-05-22T06:52:46.841Z,54.16
2023-05-22T06:55:35.182Z,53.14
2023-05-22T06:58:20.830Z,51.79
2023-05-22T07:01:06.370Z,51.68
2023-05-22T07:03:51.775Z,51.99
2023-05-22T07:06:41.727Z,48.66
2023-05-22T07:09:27.564Z,48.96
2023-05-22T07:12:13.549Z,48.12
2023-05-22T07:15:00.295Z,49.28
2023-05-22T07:17:46.660Z,48.90
2023-05-22T07:20:32.135Z,47.31
2023-05-22T07:23:17.749Z,46.38
2023-05-22T07:26:03.185Z,46.11
2023-05-22T07:28:48.735Z,46.77
2023-05-22T07:31:34.546Z,47.05
2023-05-22T07:34:19.851Z,47.24
2023-05-22T07:37:08.022Z,47.72
2023-05-22T07:39:53.714Z,47.63
2023-05-22T07:42:38.997Z,47.77
2023-05-22T07:45:24.169Z,48.21
2023-05-22T07:48:09.472Z,47.97
2023-05-22T07:50:54.907Z,47.75
2023-05-22T07:53:40.656Z,47.00
2023-05-22T07:56:27.474Z,46.03
2023-05-22T07:59:13.085Z,47.14
2023-05-22T08:01:58.651Z,46.50
2023-05-22T08:04:44.863Z,45.94
2023-05-22T08:07:31.878Z,44.48
2023-05-22T08:10:19.147Z,43.79
2023-05-22T08:13:06.472Z,43.67
2023-05-22T08:15:51.839Z,43.04
2023-05-22T08:18:46.271Z,42.07
2023-05-22T08:21:34.608Z,42.54
2023-05-22T08:24:20.093Z,42.28
2023-05-22T08:27:05.806Z,42.16
2023-05-22T08:29:52.250Z,41.69
2023-05-22T08:32:37.901Z,40.83
2023-05-22T08:35:23.732Z,40.10
2023-05-22T08:38:08.819Z,38.60
2023-05-22T08:40:57.842Z,34.71
2023-05-22T08:43:43.266Z,28.81
2023-05-22T08:46:30.202Z,27.67
2023-05-22T08:49:16.439Z,25.54
2023-05-22T08:52:23.244Z,24.80
2023-05-22T08:55:09.249Z,23.64
2023-05-22T08:57:56.673Z,23.09
2023-05-22T09:00:42.284Z,22.52
2023-05-22T09:03:33.052Z,21.75
2023-05-22T09:06:18.679Z,20.36
2023-05-22T09:09:04.503Z,20.16
2023-05-22T09:11:50.388Z,20.16
2023-05-22T09:14:45.616Z,20.86
2023-05-22T09:17:31.748Z,20.97
2023-05-22T09:20:18.620Z,19.09
2023-05-22T09:23:14.702Z,20.91
2023-05-22T09:26:03.035Z,20.02
2023-05-22T09:28:48.252Z,19.30
2023-05-22T09:31:41.533Z,18.26
2023-05-22T09:34:30.359Z,17.62
2023-05-22T09:37:16.463Z,18.86
2023-05-22T09:40:09.851Z,18.00
2023-05-22T09:42:55.414Z,17.61
2023-05-22T09:45:41.257Z,21.85
2023-05-22T09:48:26.748Z,20.10
2023-05-22T09:51:13.083Z,19.79
2023-05-22T09:54:03.713Z,19.39
2023-05-22T09:56:52.800Z,19.41
2023-05-22T09:59:40.457Z,18.64
2023-05-22T10:02:27.800Z,19.76
2023-05-22T10:05:21.850Z,18.76
2023-05-22T10:08:29.355Z,18.17
2023-05-22T10:11:15.073Z,17.82
2023-05-22T10:14:01.960Z,17.54
2023-05-22T10:16:47.855Z,17.42
2023-05-22T10:19:33.576Z,17.16
2023-05-22T10:22:21.506Z,18.15
2023-05-22T10:25:09.870Z,18.21
2023-05-22T10:27:57.358Z,18.48
2023-05-22T10:31:05.360Z,19.01
2023-05-22T10:33:57.872Z,18.58
2023-05-22T10:37:16.615Z,18.46
2023-05-22T10:40:09.612Z,18.36
2023-05-22T10:43:05.088Z,16.99
2023-05-22T10:46:02.637Z,18.32
2023-05-22T10:48:50.089Z,17.15
2023-05-22T10:51:44.923Z,16.81
2023-05-22T10:54:43.703Z,16.61
2023-05-22T10:57:35.860Z,17.10
2023-05-22T11:00:24.595Z,17.51
2023-05-22T11:03:18.376Z,16.60
2023-05-22T11:06:04.161Z,15.37
2023-05-22T11:08:57.822Z,15.96
2023-05-22T11:12:13.440Z,16.17
2023-05-22T11:15:15.758Z,15.67
2023-05-22T11:18:03.461Z,14.96
2023-05-22T11:20:49.160Z,16.02
2023-05-22T11:23:35.536Z,16.28
2023-05-22T11:26:25.596Z,16.53
2023-05-22T11:29:14.031Z,16.24
2023-05-22T11:31:59.732Z,17.76
2023-05-22T11:34:47.734Z,16.88
2023-05-22T11:37:33.337Z,17.05
2023-05-22T11:40:25.607Z,16.27
2023-05-22T11:43:12.264Z,16.11
2023-05-22T11:46:01.936Z,16.35
2023-05-22T11:48:47.812Z,18.08
2023-05-22T11:51:33.470Z,17.14
2023-05-22T11:54:19.971Z,15.46
2023-05-22T11:57:08.011Z,16.00
2023-05-22T11:59:53.854Z,14.53
2023-05-22T12:02:45.312Z,14.82
2023-05-22T12:05:32.730Z,14.56
2023-05-22T12:08:18.150Z,14.64
2023-05-22T12:11:06.266Z,14.94
2023-05-22T12:14:00.530Z,13.96
2023-05-22T12:16:52.574Z,15.03
2023-05-22T12:19:40.045Z,15.83
2023-05-22T12:22:29.881Z,15.25
2023-05-22T12:25:20.403Z,14.56
2023-05-22T12:28:07.636Z,14.95
2023-05-22T12:30:56.002Z,15.15
2023-05-22T12:33:41.910Z,15.45
2023-05-22T12:36:41.871Z,14.10
2023-05-22T12:39:28.819Z,13.36
2023-05-22T12:42:15.487Z,13.33
2023-05-22T12:45:00.954Z,14.82
2023-05-22T12:47:46.858Z,14.97
2023-05-22T12:50:32.653Z,15.76
2023-05-22T12:53:18.262Z,15.99
2023-05-22T12:56:04.362Z,16.53
2023-05-22T12:58:50.039Z,16.43
2023-05-22T13:01:35.787Z,15.19
2023-05-22T13:04:22.151Z,15.64
2023-05-22T13:07:09.163Z,15.34
2023-05-22T13:09:54.679Z,15.80
2023-05-22T13:12:40.600Z,17.52
2023-05-22T13:15:29.382Z,17.45
2023-05-22T13:18:15.502Z,17.91
2023-05-22T13:21:00.763Z,16.91
2023-05-22T13:23:46.328Z,17.84
2023-05-22T13:26:31.642Z,16.65
